Latest Weather Observations for Bendigo

IDV60801

Issued at 9:02 am EST Saturday 1 August 2015 (issued every 30 minutes, with the page automatically refreshed every 10 minutes)

About weather observations | Map of weather stations | Latest weather observations for VIC | Other Formats
Station Details ID: 081123 Name: BENDIGO AIRPORT Lat: -36.74 Lon: 144.33 Height: 208.0 m
Data from the previous 72 hours. | See also: Recent months at Bendigo
Date/Time
EST
Temp
°C
App
Temp
°C
Dew
Point
Rel
Hum
%
Delta-T
°C
Wind Press
QNH
hPa
Press
MSL
hPa
Rain
since 9 am
mm
Dir
 
Spd
km/h
Gust
km/h
Spd
kts
Gust
kts
01/09:00am 10.0 7.8 9.4 96 0.3 WNW 11 15 6 8 1012.4 1012.8 3.0
01/08:30am 9.9 7.7 9.3 96 0.3 NW 11 19 6 10 1012.0 1012.4 2.0
01/08:12am 9.9 6.1 9.1 95 0.4 NW 19 28 10 15 1011.9 1012.3 1.4
01/08:00am 9.8 6.0 9.0 95 0.4 NW 19 32 10 17 1011.5 1012.0 1.4
01/07:44am 9.8 6.0 9.0 95 0.4 NW 19 28 10 15 1011.6 1012.1 1.2
01/07:30am 9.7 5.9 8.9 95 0.4 NW 19 28 10 15 1011.5 1012.0 1.2
01/07:00am 9.2 6.3 8.0 92 0.6 NNW 13 19 7 10 1011.2 1011.7 0.6
01/06:51am 9.3 6.3 7.6 89 0.8 NNW 13 20 7 11 1011.1 1011.6 0.4
01/06:44am 9.5 6.4 7.1 85 1.1 NNW 13 19 7 10 1011.1 1011.6 0.2
01/06:30am 9.8 6.6 6.7 81 1.5 N 13 20 7 11 1010.8 1011.2 0.2
01/06:00am 9.9 6.2 6.2 78 1.7 N 15 24 8 13 1010.8 1011.2 0.2
01/05:30am 9.9 6.2 6.1 77 1.8 N 15 22 8 12 1010.9 1011.3 0.2
01/05:00am 9.2 5.9 6.3 82 1.4 NNE 13 15 7 8 1011.2 1011.7 0.2
01/04:30am 8.8 4.7 6.1 83 1.3 NNE 17 24 9 13 1011.3 1011.8 0.2
01/04:00am 8.8 5.0 5.7 81 1.4 N 15 26 8 14 1011.7 1012.2 0.2
01/03:30am 8.3 5.1 5.1 80 1.4 NE 11 15 6 8 1012.1 1012.5 0.2
01/03:00am 7.8 4.5 4.7 81 1.4 NE 11 15 6 8 1012.6 1013.0 0.2
01/02:30am 7.9 4.2 4.3 78 1.6 NNE 13 17 7 9 1013.1 1013.5 0.2
01/02:00am 7.7 3.5 3.7 76 1.7 NNE 15 20 8 11 1013.4 1013.8 0.2
01/01:30am 7.9 3.2 3.4 73 1.9 NNE 17 22 9 12 1013.9 1014.3 0.2
01/01:00am 8.0 3.6 2.9 70 2.2 NNE 15 22 8 12 1014.5 1014.9 0.2
01/12:30am 7.9 3.5 2.6 69 2.2 NNE 15 19 8 10 1015.1 1015.6 0.2
01/12:00am 7.9 3.9 2.6 69 2.2 NNE 13 17 7 9 1015.6 1016.1 0.2
 
Date/Time
EST
Temp
°C
App
Temp
°C
Dew
Point
Rel
Hum
%
Delta-T
°C
Wind Press
QNH
hPa
Press
MSL
hPa
Rain
since 9 am
mm
Dir
 
Spd
km/h
Gust
km/h
Spd
kts
Gust
kts
31/11:30pm 7.9 3.4 2.4 68 2.3 NNE 15 20 8 11 1015.8 1016.3 0.2
31/11:00pm 7.8 3.7 2.5 69 2.2 N 13 19 7 10 1016.3 1016.8 0.2
31/10:30pm 7.0 4.3 2.5 73 1.9 N 6 7 3 4 1016.6 1017.1 0.2
31/10:00pm 6.6 4.3 2.5 75 1.7 NNW 4 7 2 4 1017.0 1017.4 0.2
31/09:30pm 6.2 2.9 2.5 77 1.5 N 9 11 5 6 1017.2 1017.6 0.2
31/09:00pm 5.4 3.7 2.1 79 1.3 CALM 0 0 0 0 1017.6 1018.0 0.2
31/08:30pm 4.9 3.3 2.3 83 1.1 CALM 0 0 0 0 1018.3 1018.7 0.2
31/08:00pm 4.1 2.4 2.0 86 0.8 CALM 0 0 0 0 1017.8 1018.2 0.2
31/07:30pm 3.9 2.2 1.9 87 0.8 CALM 0 0 0 0 1018.2 1018.6 0.2
31/07:00pm 4.0 2.2 1.0 81 1.2 CALM 0 0 0 0 1017.9 1018.3 0.2
31/06:30pm 5.9 4.3 2.2 77 1.5 CALM 0 4 0 2 1017.8 1018.2 0.2
31/06:00pm 7.6 4.7 2.7 71 2.1 NNE 7 9 4 5 1017.3 1017.7 0.2
31/05:30pm 9.4 6.5 2.7 63 2.9 N 7 11 4 6 1017.3 1017.7 0.2
31/05:00pm 10.1 6.0 2.2 58 3.4 N 13 19 7 10 1017.0 1017.4 0.2
31/04:30pm 10.5 6.0 2.4 57 3.5 N 15 20 8 11 1017.2 1017.6 0.2
31/04:00pm 10.9 6.4 2.0 54 3.8 N 15 22 8 12 1017.8 1018.2 0.2
31/03:30pm 11.2 6.7 2.0 53 4.0 NNW 15 24 8 13 1018.0 1018.4 0.2
31/03:00pm 11.1 6.5 1.6 52 4.0 NNW 15 19 8 10 1017.8 1018.2 0.2
31/02:30pm 11.6 7.0 1.8 51 4.2 NW 15 20 8 11 1018.2 1018.6 0.2
31/02:00pm 11.1 6.0 0.5 48 4.4 NNW 17 30 9 16 1018.5 1018.9 0.2
31/01:30pm 11.1 7.6 1.4 51 4.1 N 9 17 5 9 1019.0 1019.4 0.2
31/01:00pm 11.5 7.9 2.8 55 3.8 NNW 11 17 6 9 1019.6 1020.1 0.2
31/12:30pm 10.6 7.7 1.4 53 3.9 NNW 6 13 3 7 1020.2 1020.7 0.2
31/12:00pm 10.7 9.1 2.3 56 3.6 CALM 0 6 0 3 1020.7 1021.2 0.0
31/11:30am 10.3 8.9 3.3 62 3.1 CALM 0 0 0 0 1021.1 1021.6 0.0
31/11:00am 9.3 7.7 4.7 73 2.1 W 2 9 1 5 1021.5 1022.0 0.0
31/10:30am 8.2 5.7 4.0 75 1.8 WSW 6 11 3 6 1022.0 1022.4 0.0
31/10:00am 8.5 7.2 4.1 74 1.9 CALM 0 6 0 3 1022.0 1022.4 0.0
31/09:30am 6.4 5.1 4.2 86 1.0 CALM 0 0 0 0 1022.1 1022.5 0.0
31/09:00am 2.9 1.3 2.5 97 0.2 CALM 0 0 0 0 1021.9 1022.3 0.8
31/08:30am 0.3 -1.7 -0.1 97 0.1 CALM 0 0 0 0 1021.4 1021.9 0.8
31/08:03am -0.5 -2.6 -0.9 97 0.1 CALM 0 0 0 0 1021.3 1021.8 0.8
31/08:01am -0.6 -2.7 -1.0 97 0.1 CALM 0 0 0 0 1021.4 1021.9 0.8
31/08:00am -0.7 -2.8 -1.1 97 0.1 CALM 0 0 0 0 1021.4 1021.9 0.8
31/07:30am -1.7 -4.0 -2.1 97 0.1 CALM 0 0 0 0 1020.8 1021.3 0.8
31/07:17am -1.7 -4.0 -2.1 97 0.1 CALM 0 0 0 0 1020.5 1021.0 0.8
31/07:15am -1.7 -4.0 -2.1 97 0.1 CALM 0 0 0 0 1020.5 1021.0 0.8
31/07:03am -1.2 -3.4 -1.6 97 0.1 CALM 0 0 0 0 1020.4 1020.9 0.8
31/07:00am -1.3 -3.5 -1.7 97 0.1 CALM 0 0 0 0 1020.3 1020.8 0.8
31/06:58am -1.3 -3.5 -1.7 97 0.1 CALM 0 0 0 0 1020.2 1020.7 0.8
31/06:30am -0.9 -3.1 -1.3 97 0.1 CALM 0 0 0 0 1019.9 1020.4 0.8
31/06:00am -1.2 -3.4 -1.6 97 0.1 CALM 0 0 0 0 1019.8 1020.3 0.8
31/05:30am -0.9 -3.1 -1.3 97 0.1 CALM 0 0 0 0 1019.5 1020.0 0.8
31/05:23am -0.1 -2.2 -0.5 97 0.1 CALM 0 0 0 0 1019.4 1019.9 0.8
31/05:00am -0.6 -3.1 -1.0 97 0.1 SW 2 7 1 4 1019.2 1019.7 0.8
31/04:42am 0.4 -1.6 0.0 97 0.1 CALM 0 0 0 0 1019.3 1019.8 0.8
31/04:30am 0.5 -1.5 0.1 97 0.1 CALM 0 0 0 0 1019.3 1019.8 0.8
31/04:19am 0.2 -1.8 -0.2 97 0.1 CALM 0 0 0 0 1019.3 1019.8 0.8
31/04:07am 0.7 -1.2 0.3 97 0.1 CALM 0 0 0 0 1019.3 1019.8 0.8
31/04:00am 0.6 -1.4 0.2 97 0.1 CALM 0 0 0 0 1019.3 1019.8 0.8
31/03:30am 1.1 -0.8 0.5 96 0.2 CALM 0 0 0 0 1019.0 1019.4 0.8
31/03:20am 1.3 -0.6 0.7 96 0.2 CALM 0 0 0 0 1019.1 1019.6 0.8
31/03:00am 2.4 0.7 1.8 96 0.2 CALM 0 0 0 0 1018.9 1019.3 0.8
31/02:30am 2.1 -1.0 1.4 95 0.3 S 7 11 4 6 1019.1 1019.6 0.8
31/02:00am 3.3 1.7 2.3 93 0.4 CALM 0 7 0 4 1019.0 1019.4 0.8
31/01:30am 4.1 1.4 3.7 97 0.2 SW 7 11 4 6 1018.9 1019.3 0.8
31/01:20am 3.6 0.8 3.2 97 0.2 SW 7 9 4 5 1018.9 1019.3 0.8
31/01:00am 3.2 -0.1 2.6 96 0.2 SW 9 11 5 6 1018.8 1019.2 0.8
31/12:41am 4.4 1.8 4.0 97 0.2 SW 7 9 4 5 1018.7 1019.1 0.8
31/12:30am 4.3 1.8 3.7 96 0.3 SW 6 9 3 5 1018.5 1018.9 0.8
31/12:21am 4.9 2.3 4.3 96 0.3 SSW 7 9 4 5 1018.4 1018.8 0.8
31/12:00am 4.4 1.8 3.4 93 0.4 SW 6 9 3 5 1018.1 1018.5 0.8
 
Date/Time
EST
Temp
°C
App
Temp
°C
Dew
Point
Rel
Hum
%
Delta-T
°C
Wind Press
QNH
hPa
Press
MSL
hPa
Rain
since 9 am
mm
Dir
 
Spd
km/h
Gust
km/h
Spd
kts
Gust
kts
30/11:59pm 4.9 2.4 4.0 94 0.4 SW 6 9 3 5 1018.2 1018.6 0.8
30/11:30pm 6.7 4.5 5.5 92 0.5 SW 6 9 3 5 1018.2 1018.6 0.8
30/11:00pm 8.1 6.2 6.6 90 0.7 WSW 6 7 3 4 1017.9 1018.3 0.8
30/10:30pm 8.5 5.6 6.3 86 1.0 WNW 11 17 6 9 1018.3 1018.7 0.8
30/10:05pm 8.0 6.4 6.5 90 0.7 W 4 11 2 6 1017.8 1018.2 0.6
30/10:00pm 8.0 6.4 6.3 89 0.8 W 4 9 2 5 1017.8 1018.2 0.6
30/09:45pm 8.4 6.2 6.0 85 1.1 NW 7 9 4 5 1017.6 1018.0 0.6
30/09:30pm 8.7 6.0 5.4 80 1.5 N 9 11 5 6 1017.2 1017.6 0.6
30/09:00pm 8.5 5.0 5.6 82 1.3 N 13 19 7 10 1017.1 1017.5 0.4
30/08:30pm 8.5 5.8 5.4 81 1.4 NNW 9 13 5 7 1017.5 1017.9 0.4
30/08:00pm 8.3 6.0 5.6 83 1.2 NNW 7 13 4 7 1017.6 1018.0 0.4
30/07:30pm 8.6 5.1 5.4 80 1.5 N 13 20 7 11 1017.4 1017.8 0.4
30/07:00pm 8.6 4.3 5.2 79 1.5 N 17 24 9 13 1016.6 1017.1 0.4
30/06:30pm 8.4 4.5 5.5 82 1.3 N 15 19 8 10 1017.1 1017.5 0.4
30/06:00pm 8.4 4.9 5.5 82 1.3 N 13 17 7 9 1017.2 1017.6 0.2
30/05:30pm 9.1 4.1 4.5 73 2.1 N 20 32 11 17 1016.9 1017.3 0.2
30/05:00pm 9.5 4.4 4.3 70 2.3 N 20 30 11 16 1016.9 1017.3 0.2
30/04:30pm 9.8 4.8 3.8 66 2.7 N 19 26 10 14 1016.4 1016.9 0.2
30/04:00pm 9.8 4.3 4.2 68 2.5 NNE 22 32 12 17 1016.5 1017.0 0.2
30/03:30pm 9.7 4.2 3.9 67 2.6 N 22 33 12 18 1017.0 1017.4 0.2
30/03:00pm 9.8 4.3 4.2 68 2.5 N 22 28 12 15 1017.1 1017.5 0.2
30/02:30pm 9.5 4.7 4.5 71 2.2 N 19 28 10 15 1017.9 1018.3 0.2
30/02:00pm 9.3 4.3 4.7 73 2.1 N 20 28 11 15 1017.9 1018.3 0.2
30/01:30pm 9.5 4.0 3.9 68 2.5 N 22 35 12 19 1018.3 1018.7 0.0
30/01:00pm 9.6 3.3 3.8 67 2.6 N 26 35 14 19 1018.8 1019.2 0.0
30/12:30pm 9.2 3.3 4.0 70 2.3 N 24 39 13 21 1019.8 1020.3 0.0
30/12:00pm 8.2 3.0 3.7 73 2.0 N 20 30 11 16 1021.0 1021.5 0.0
30/11:30am 8.2 3.0 3.7 73 2.0 N 20 33 11 18 1022.0 1022.4 0.0
30/11:00am 8.3 3.1 3.6 72 2.0 N 20 33 11 18 1022.1 1022.5 0.0
30/10:30am 7.8 2.8 3.8 76 1.7 N 19 26 10 14 1023.0 1023.4 0.0
30/10:00am 7.1 3.2 3.3 77 1.6 N 13 17 7 9 1023.0 1023.4 0.0
30/09:30am 5.7 2.1 3.0 83 1.1 N 11 15 6 8 1023.4 1023.9 0.0
30/09:00am 4.8 1.2 2.7 86 0.9 NNE 11 15 6 8 1023.7 1024.2 0.0
30/08:30am 4.0 0.7 2.5 90 0.6 NNE 9 13 5 7 1023.5 1024.0 0.0
30/08:00am 1.2 -2.0 0.8 97 0.1 ENE 7 11 4 6 1023.1 1023.6 0.0
30/07:30am -0.9 -3.1 -1.6 95 0.2 CALM 0 0 0 0 1023.4 1023.9 0.0
30/07:00am -1.0 -3.2 -1.7 95 0.2 CALM 0 0 0 0 1023.6 1024.1 0.0
30/06:30am -0.2 -2.3 -0.8 96 0.2 CALM 0 0 0 0 1023.7 1024.2 0.0
30/06:00am -0.4 -2.5 -1.1 95 0.2 CALM 0 0 0 0 1023.8 1024.3 0.0
30/05:30am 0.0 -2.1 -0.6 96 0.2 CALM 0 0 0 0 1024.1 1024.6 0.0
30/05:00am 0.4 -1.6 -0.2 96 0.2 CALM 0 0 0 0 1024.2 1024.7 0.0
30/04:30am 0.0 -2.1 -0.8 94 0.3 CALM 0 0 0 0 1024.3 1024.8 0.0
30/04:00am 0.3 -1.8 -0.5 94 0.3 CALM 0 0 0 0 1024.8 1025.3 0.0
30/03:30am 0.9 -1.1 0.0 94 0.3 CALM 0 0 0 0 1024.8 1025.3 0.0
30/03:00am 1.5 -0.4 0.6 94 0.3 CALM 0 0 0 0 1025.3 1025.8 0.0
30/02:30am 2.1 0.3 1.4 95 0.3 CALM 0 0 0 0 1025.4 1025.9 0.0
30/02:00am 2.6 0.9 1.6 93 0.4 CALM 0 0 0 0 1025.9 1026.4 0.0
30/01:30am 2.6 0.8 1.4 92 0.5 CALM 0 0 0 0 1026.2 1026.7 0.0
30/01:00am 2.9 1.2 1.6 91 0.5 CALM 0 0 0 0 1026.3 1026.8 0.0
30/12:30am 4.0 2.3 2.0 87 0.8 CALM 0 0 0 0 1026.7 1027.2 0.0
30/12:00am 5.3 3.8 2.8 84 1.0 CALM 0 0 0 0 1027.3 1027.8 0.0
 
Date/Time
EST
Temp
°C
App
Temp
°C
Dew
Point
Rel
Hum
%
Delta-T
°C
Wind Press
QNH
hPa
Press
MSL
hPa
Rain
since 9 am
mm
Dir
 
Spd
km/h
Gust
km/h
Spd
kts
Gust
kts
29/11:30pm 5.4 3.9 3.1 85 1.0 CALM 0 0 0 0 1027.5 1028.0 0.0
29/11:00pm 6.1 4.6 2.9 80 1.3 CALM 0 0 0 0 1027.8 1028.3 0.0
29/10:30pm 6.7 5.2 3.0 77 1.6 CALM 0 0 0 0 1028.1 1028.6 0.0
29/10:00pm 7.6 5.4 3.1 73 1.9 N 4 9 2 5 1028.2 1028.7 0.0
29/09:30pm 7.8 5.3 3.5 74 1.9 N 6 9 3 5 1028.2 1028.7 0.0
29/09:00pm 8.1 5.8 3.0 70 2.2 N 4 7 2 4 1028.6 1029.1 0.0
29/08:30pm 8.1 5.5 3.4 72 2.0 NNE 6 7 3 4 1028.5 1029.0 0.0
29/08:00pm 8.6 5.8 3.0 68 2.4 N 7 11 4 6 1028.5 1029.0 0.0
29/07:30pm 8.5 5.7 3.4 70 2.2 N 7 9 4 5 1028.6 1029.1 0.0
29/07:00pm 8.8 6.0 3.0 67 2.5 NNW 7 11 4 6 1028.7 1029.2 0.0
29/06:30pm 9.1 5.9 2.9 65 2.7 N 9 13 5 7 1028.4 1028.9 0.0
29/06:00pm 9.2 6.4 3.2 66 2.6 N 7 11 4 6 1028.6 1029.1 0.0
29/05:30pm 9.4 6.2 2.9 64 2.8 N 9 15 5 8 1028.6 1029.1 0.0
29/05:00pm 9.7 6.5 3.0 63 2.9 NNW 9 11 5 6 1028.7 1029.2 0.0
29/04:30pm 9.8 6.5 2.6 61 3.1 NNW 9 15 5 8 1028.6 1029.1 0.0
29/04:00pm 10.0 6.2 3.7 65 2.8 N 13 17 7 9 1029.0 1029.5 0.0
29/03:30pm 10.0 6.7 4.8 70 2.4 N 11 19 6 10 1029.1 1029.6 0.0
29/03:00pm 10.3 7.4 4.9 69 2.4 N 9 15 5 8 1029.2 1029.7 0.0
29/02:30pm 10.1 5.7 4.9 70 2.4 N 17 26 9 14 1029.7 1030.2 0.0
29/02:00pm 9.7 5.7 5.1 73 2.1 N 15 22 8 12 1030.3 1030.8 0.0
29/01:30pm 10.2 6.2 4.8 69 2.5 N 15 19 8 10 1030.7 1031.2 0.0
29/01:00pm 10.3 6.4 5.5 72 2.2 N 15 19 8 10 1031.1 1031.7 0.0
29/12:30pm 9.5 5.6 5.5 76 1.8 N 15 22 8 12 1031.7 1032.3 0.0
29/12:00pm 9.5 5.5 4.7 72 2.1 NNW 15 20 8 11 1032.6 1033.1 0.0
29/11:30am 9.5 6.1 5.9 78 1.7 N 13 19 7 10 1033.3 1033.8 0.0
29/11:00am 8.9 5.7 5.1 77 1.7 NNW 11 15 6 8 1033.1 1033.6 0.0
29/10:30am 8.9 6.6 5.8 81 1.4 N 7 13 4 7 1033.4 1033.9 0.0
29/10:00am 8.1 6.6 5.0 81 1.4 NNE 2 7 1 4 1033.4 1033.9 0.0
29/09:30am 6.1 5.1 5.4 95 0.3 CALM 0 4 0 2 1033.8 1034.3 0.0

Other Formats:

Comma delimited format used in spreadsheet applications
http://www.bom.gov.au/fwo/IDV60801/IDV60801.94855.axf

JavaScript Object Notation format (JSON) in row-major order
http://www.bom.gov.au/fwo/IDV60801/IDV60801.94855.json